sensor_id;sensor_type;location;lat;lon;timestamp;pressure;altitude;pressure_sealevel;temperature;humidity
68376;BME280;55318;52.068;5.188;2023-07-31T00:00:20;100981.0;;;17.87;100.0
68376;BME280;55318;52.068;5.188;2023-07-31T00:01:57;100981.0;;;17.93;100.0
68376;BME280;55318;52.068;5.188;2023-07-31T00:03:34;100971.0;;;18.0;100.0
68376;BME280;55318;52.068;5.188;2023-07-31T00:06:47;100973.0;;;18.06;100.0
68376;BME280;55318;52.068;5.188;2023-07-31T00:08:25;100972.0;;;18.05;100.0
68376;BME280;55318;52.068;5.188;2023-07-31T00:10:01;100969.0;;;18.14;100.0
68376;BME280;55318;52.068;5.188;2023-07-31T00:11:38;100966.0;;;18.18;100.0
68376;BME280;55318;52.068;5.188;2023-07-31T00:14:51;100962.0;;;18.21;100.0
68376;BME280;55318;52.068;5.188;2023-07-31T00:16:28;100952.0;;;18.32;100.0
68376;BME280;55318;52.068;5.188;2023-07-31T00:18:05;100949.0;;;18.48;100.0
68376;BME280;55318;52.068;5.188;2023-07-31T00:21:19;100950.0;;;18.45;100.0
68376;BME280;55318;52.068;5.188;2023-07-31T00:22:57;100946.0;;;18.53;100.0
68376;BME280;55318;52.068;5.188;2023-07-31T00:24:34;100949.0;;;18.68;100.0
68376;BME280;55318;52.068;5.188;2023-07-31T00:27:47;100952.0;;;18.75;100.0
68376;BME280;55318;52.068;5.188;2023-07-31T00:29:23;100953.0;;;18.77;100.0
68376;BME280;55318;52.068;5.188;2023-07-31T00:31:01;100952.0;;;18.73;100.0
68376;BME280;55318;52.068;5.188;2023-07-31T00:32:38;100948.0;;;18.86;100.0
68376;BME280;55318;52.068;5.188;2023-07-31T00:35:51;100949.0;;;19.0;100.0
68376;BME280;55318;52.068;5.188;2023-07-31T00:37:28;100948.0;;;19.0;100.0
68376;BME280;55318;52.068;5.188;2023-07-31T00:39:04;100949.0;;;19.0;100.0
68376;BME280;55318;52.068;5.188;2023-07-31T00:42:18;100951.0;;;19.12;100.0
68376;BME280;55318;52.068;5.188;2023-07-31T00:43:54;100952.0;;;19.16;100.0
68376;BME280;55318;52.068;5.188;2023-07-31T00:45:30;100955.0;;;19.13;100.0
68376;BME280;55318;52.068;5.188;2023-07-31T00:47:08;100951.0;;;19.18;100.0
68376;BME280;55318;52.068;5.188;2023-07-31T00:50:24;100951.0;;;19.23;100.0
68376;BME280;55318;52.068;5.188;2023-07-31T00:52:01;100949.0;;;19.11;100.0
68376;BME280;55318;52.068;5.188;2023-07-31T00:53:37;100947.0;;;19.09;100.0
68376;BME280;55318;52.068;5.188;2023-07-31T00:56:52;100946.0;;;19.16;100.0
68376;BME280;55318;52.068;5.188;2023-07-31T00:58:30;100946.0;;;19.16;100.0
68376;BME280;55318;52.068;5.188;2023-07-31T01:00:08;100948.0;;;19.11;100.0
68376;BME280;55318;52.068;5.188;2023-07-31T01:01:46;100938.0;;;19.09;100.0
68376;BME280;55318;52.068;5.188;2023-07-31T01:05:00;100940.0;;;19.11;100.0
68376;BME280;55318;52.068;5.188;2023-07-31T01:06:42;100934.0;;;19.02;100.0
68376;BME280;55318;52.068;5.188;2023-07-31T01:08:33;100940.0;;;19.11;100.0
68376;BME280;55318;52.068;5.188;2023-07-31T01:10:29;100943.0;;;19.02;100.0
68376;BME280;55318;52.068;5.188;2023-07-31T01:13:50;100942.0;;;19.09;100.0
68376;BME280;55318;52.068;5.188;2023-07-31T01:15:27;100940.0;;;19.09;100.0
68376;BME280;55318;52.068;5.188;2023-07-31T01:17:04;100948.0;;;19.16;100.0
68376;BME280;55318;52.068;5.188;2023-07-31T01:18:41;100935.0;;;19.05;100.0
68376;BME280;55318;52.068;5.188;2023-07-31T01:22:12;100942.0;;;19.06;100.0
68376;BME280;55318;52.068;5.188;2023-07-31T01:24:19;100937.0;;;19.03;100.0
68376;BME280;55318;52.068;5.188;2023-07-31T01:26:25;100936.0;;;19.03;100.0
68376;BME280;55318;52.068;5.188;2023-07-31T01:28:09;100938.0;;;19.03;100.0
68376;BME280;55318;52.068;5.188;2023-07-31T01:29:54;100939.0;;;19.11;100.0
68376;BME280;55318;52.068;5.188;2023-07-31T01:31:36;100938.0;;;19.04;100.0
68376;BME280;55318;52.068;5.188;2023-07-31T01:33:15;100935.0;;;19.16;100.0
68376;BME280;55318;52.068;5.188;2023-07-31T01:36:31;100936.0;;;19.14;100.0
68376;BME280;55318;52.068;5.188;2023-07-31T01:38:08;100940.0;;;19.04;100.0
68376;BME280;55318;52.068;5.188;2023-07-31T01:39:45;100939.0;;;19.16;100.0
68376;BME280;55318;52.068;5.188;2023-07-31T01:42:57;100939.0;;;19.12;100.0
68376;BME280;55318;52.068;5.188;2023-07-31T01:44:35;100940.0;;;19.14;100.0
68376;BME280;55318;52.068;5.188;2023-07-31T01:46:11;100944.0;;;19.04;100.0
68376;BME280;55318;52.068;5.188;2023-07-31T01:47:48;100940.0;;;19.05;100.0
68376;BME280;55318;52.068;5.188;2023-07-31T01:51:01;100947.0;;;19.09;100.0
68376;BME280;55318;52.068;5.188;2023-07-31T01:52:38;100940.0;;;19.09;100.0
68376;BME280;55318;52.068;5.188;2023-07-31T01:54:16;100935.0;;;18.97;100.0
68376;BME280;55318;52.068;5.188;2023-07-31T01:57:28;100934.0;;;19.03;100.0
68376;BME280;55318;52.068;5.188;2023-07-31T01:59:04;100923.0;;;18.97;100.0
68376;BME280;55318;52.068;5.188;2023-07-31T02:00:41;100923.0;;;18.95;100.0
68376;BME280;55318;52.068;5.188;2023-07-31T02:03:55;100918.0;;;18.96;100.0
68376;BME280;55318;52.068;5.188;2023-07-31T02:05:32;100921.0;;;18.98;100.0
68376;BME280;55318;52.068;5.188;2023-07-31T02:07:09;100917.0;;;18.91;100.0
68376;BME280;55318;52.068;5.188;2023-07-31T02:08:45;100910.0;;;18.88;100.0
68376;BME280;55318;52.068;5.188;2023-07-31T02:12:01;100909.0;;;18.89;100.0
68376;BME280;55318;52.068;5.188;2023-07-31T02:13:37;100907.0;;;18.95;100.0
68376;BME280;55318;52.068;5.188;2023-07-31T02:15:13;100894.0;;;18.84;100.0
68376;BME280;55318;52.068;5.188;2023-07-31T02:18:26;100891.0;;;18.95;100.0
68376;BME280;55318;52.068;5.188;2023-07-31T02:20:04;100890.0;;;18.98;100.0
68376;BME280;55318;52.068;5.188;2023-07-31T02:21:42;100886.0;;;18.93;100.0
68376;BME280;55318;52.068;5.188;2023-07-31T02:24:55;100885.0;;;18.89;100.0
68376;BME280;55318;52.068;5.188;2023-07-31T02:26:31;100881.0;;;18.84;100.0
68376;BME280;55318;52.068;5.188;2023-07-31T02:28:08;100889.0;;;18.84;100.0
68376;BME280;55318;52.068;5.188;2023-07-31T02:29:45;100882.0;;;18.81;100.0
68376;BME280;55318;52.068;5.188;2023-07-31T02:32:58;100883.0;;;18.81;100.0
68376;BME280;55318;52.068;5.188;2023-07-31T02:34:35;100884.0;;;18.89;100.0
68376;BME280;55318;52.068;5.188;2023-07-31T02:36:11;100888.0;;;18.91;100.0
68376;BME280;55318;52.068;5.188;2023-07-31T02:39:26;100882.0;;;18.91;100.0
68376;BME280;55318;52.068;5.188;2023-07-31T02:41:03;100889.0;;;18.95;100.0
68376;BME280;55318;52.068;5.188;2023-07-31T02:42:39;100884.0;;;18.97;100.0
68376;BME280;55318;52.068;5.188;2023-07-31T02:44:16;100883.0;;;18.93;100.0
68376;BME280;55318;52.068;5.188;2023-07-31T02:47:29;100881.0;;;18.95;100.0
68376;BME280;55318;52.068;5.188;2023-07-31T02:49:06;100878.0;;;18.86;100.0
68376;BME280;55318;52.068;5.188;2023-07-31T02:50:42;100875.0;;;18.89;100.0
68376;BME280;55318;52.068;5.188;2023-07-31T02:53:55;100876.0;;;18.95;100.0
68376;BME280;55318;52.068;5.188;2023-07-31T02:55:31;100873.0;;;18.91;100.0
68376;BME280;55318;52.068;5.188;2023-07-31T02:57:08;100875.0;;;18.98;100.0
68376;BME280;55318;52.068;5.188;2023-07-31T03:00:21;100874.0;;;18.95;100.0
68376;BME280;55318;52.068;5.188;2023-07-31T03:01:58;100871.0;;;18.89;100.0
68376;BME280;55318;52.068;5.188;2023-07-31T03:03:35;100872.0;;;18.95;100.0
68376;BME280;55318;52.068;5.188;2023-07-31T03:05:12;100868.0;;;18.91;100.0
68376;BME280;55318;52.068;5.188;2023-07-31T03:08:26;100868.0;;;18.91;100.0
68376;BME280;55318;52.068;5.188;2023-07-31T03:10:03;100872.0;;;18.93;100.0
68376;BME280;55318;52.068;5.188;2023-07-31T03:11:40;100868.0;;;18.88;100.0
68376;BME280;55318;52.068;5.188;2023-07-31T03:14:54;100863.0;;;18.86;100.0
68376;BME280;55318;52.068;5.188;2023-07-31T03:16:31;100860.0;;;18.77;100.0
68376;BME280;55318;52.068;5.188;2023-07-31T03:18:08;100859.0;;;18.77;100.0
68376;BME280;55318;52.068;5.188;2023-07-31T03:21:21;100856.0;;;18.8;100.0
68376;BME280;55318;52.068;5.188;2023-07-31T03:22:58;100859.0;;;18.75;100.0
68376;BME280;55318;52.068;5.188;2023-07-31T03:24:34;100860.0;;;18.82;100.0
68376;BME280;55318;52.068;5.188;2023-07-31T03:26:11;100855.0;;;18.78;100.0
68376;BME280;55318;52.068;5.188;2023-07-31T03:29:26;100853.0;;;18.81;100.0
68376;BME280;55318;52.068;5.188;2023-07-31T03:31:02;100858.0;;;18.84;100.0
68376;BME280;55318;52.068;5.188;2023-07-31T03:32:38;100855.0;;;18.77;100.0
68376;BME280;55318;52.068;5.188;2023-07-31T03:35:52;100861.0;;;18.86;100.0
68376;BME280;55318;52.068;5.188;2023-07-31T03:37:29;100861.0;;;18.87;99.75
68376;BME280;55318;52.068;5.188;2023-07-31T03:39:06;100856.0;;;18.91;99.8
68376;BME280;55318;52.068;5.188;2023-07-31T03:42:19;100855.0;;;18.68;99.92
68376;BME280;55318;52.068;5.188;2023-07-31T03:43:56;100845.0;;;18.64;100.0
68376;BME280;55318;52.068;5.188;2023-07-31T03:45:33;100848.0;;;18.81;100.0
68376;BME280;55318;52.068;5.188;2023-07-31T03:47:11;100847.0;;;18.81;100.0
68376;BME280;55318;52.068;5.188;2023-07-31T03:50:24;100844.0;;;18.79;100.0
68376;BME280;55318;52.068;5.188;2023-07-31T03:52:00;100848.0;;;18.75;99.27
68376;BME280;55318;52.068;5.188;2023-07-31T03:53:37;100843.0;;;18.71;99.65
68376;BME280;55318;52.068;5.188;2023-07-31T03:56:51;100847.0;;;18.78;99.02
68376;BME280;55318;52.068;5.188;2023-07-31T03:58:27;100844.0;;;18.7;100.0
68376;BME280;55318;52.068;5.188;2023-07-31T04:00:06;100843.0;;;18.84;99.12
68376;BME280;55318;52.068;5.188;2023-07-31T04:01:43;100836.0;;;18.78;99.63
68376;BME280;55318;52.068;5.188;2023-07-31T04:04:56;100826.0;;;18.73;99.89
68376;BME280;55318;52.068;5.188;2023-07-31T04:06:32;100828.0;;;18.61;100.0
68376;BME280;55318;52.068;5.188;2023-07-31T04:08:09;100826.0;;;18.66;99.81
68376;BME280;55318;52.068;5.188;2023-07-31T04:11:23;100831.0;;;18.57;100.0
68376;BME280;55318;52.068;5.188;2023-07-31T04:13:00;100821.0;;;18.66;99.66
68376;BME280;55318;52.068;5.188;2023-07-31T04:14:37;100825.0;;;18.59;99.63
68376;BME280;55318;52.068;5.188;2023-07-31T04:17:50;100817.0;;;18.47;99.66
68376;BME280;55318;52.068;5.188;2023-07-31T04:19:26;100812.0;;;18.52;100.0
68376;BME280;55318;52.068;5.188;2023-07-31T04:21:03;100814.0;;;18.57;99.54
68376;BME280;55318;52.068;5.188;2023-07-31T04:22:40;100808.0;;;18.55;99.71
68376;BME280;55318;52.068;5.188;2023-07-31T04:25:54;100807.0;;;18.57;100.0
68376;BME280;55318;52.068;5.188;2023-07-31T04:27:31;100814.0;;;18.57;100.0
68376;BME280;55318;52.068;5.188;2023-07-31T04:29:08;100809.0;;;18.52;100.0
68376;BME280;55318;52.068;5.188;2023-07-31T04:32:23;100810.0;;;18.5;100.0
68376;BME280;55318;52.068;5.188;2023-07-31T04:33:59;100808.0;;;18.5;100.0
68376;BME280;55318;52.068;5.188;2023-07-31T04:35:36;100805.0;;;18.43;100.0
68376;BME280;55318;52.068;5.188;2023-07-31T04:38:50;100807.0;;;18.5;100.0
68376;BME280;55318;52.068;5.188;2023-07-31T04:40:27;100805.0;;;18.41;100.0
68376;BME280;55318;52.068;5.188;2023-07-31T04:42:04;100805.0;;;18.45;100.0
68376;BME280;55318;52.068;5.188;2023-07-31T04:43:40;100809.0;;;18.37;100.0
68376;BME280;55318;52.068;5.188;2023-07-31T04:46:54;100805.0;;;18.29;100.0
68376;BME280;55318;52.068;5.188;2023-07-31T04:48:31;100802.0;;;18.36;100.0
68376;BME280;55318;52.068;5.188;2023-07-31T04:50:08;100798.0;;;18.41;100.0
68376;BME280;55318;52.068;5.188;2023-07-31T04:53:21;100794.0;;;18.39;100.0
68376;BME280;55318;52.068;5.188;2023-07-31T04:54:58;100794.0;;;18.48;100.0
68376;BME280;55318;52.068;5.188;2023-07-31T04:56:34;100792.0;;;18.46;100.0
68376;BME280;55318;52.068;5.188;2023-07-31T04:58:12;100786.0;;;18.31;100.0
68376;BME280;55318;52.068;5.188;2023-07-31T05:01:25;100790.0;;;18.29;100.0
68376;BME280;55318;52.068;5.188;2023-07-31T05:03:01;100786.0;;;18.27;100.0
68376;BME280;55318;52.068;5.188;2023-07-31T05:04:38;100787.0;;;18.36;100.0
68376;BME280;55318;52.068;5.188;2023-07-31T05:07:53;100787.0;;;18.34;100.0
68376;BME280;55318;52.068;5.188;2023-07-31T05:09:30;100783.0;;;18.27;100.0
68376;BME280;55318;52.068;5.188;2023-07-31T05:11:07;100781.0;;;18.12;100.0
68376;BME280;55318;52.068;5.188;2023-07-31T05:14:21;100781.0;;;18.16;100.0
68376;BME280;55318;52.068;5.188;2023-07-31T05:15:58;100782.0;;;18.13;100.0
68376;BME280;55318;52.068;5.188;2023-07-31T05:17:34;100777.0;;;18.21;100.0
68376;BME280;55318;52.068;5.188;2023-07-31T05:19:12;100780.0;;;18.2;100.0
68376;BME280;55318;52.068;5.188;2023-07-31T05:22:26;100778.0;;;18.13;100.0
68376;BME280;55318;52.068;5.188;2023-07-31T05:24:05;100777.0;;;18.23;100.0
68376;BME280;55318;52.068;5.188;2023-07-31T05:25:41;100775.0;;;18.18;100.0
68376;BME280;55318;52.068;5.188;2023-07-31T05:28:56;100772.0;;;18.25;100.0
68376;BME280;55318;52.068;5.188;2023-07-31T05:30:32;100769.0;;;18.23;100.0
68376;BME280;55318;52.068;5.188;2023-07-31T05:32:08;100762.0;;;18.2;100.0
68376;BME280;55318;52.068;5.188;2023-07-31T05:33:45;100758.0;;;18.2;100.0
68376;BME280;55318;52.068;5.188;2023-07-31T05:36:57;100755.0;;;18.16;100.0
68376;BME280;55318;52.068;5.188;2023-07-31T05:38:34;100751.0;;;18.23;100.0
68376;BME280;55318;52.068;5.188;2023-07-31T05:40:12;100751.0;;;18.18;100.0
68376;BME280;55318;52.068;5.188;2023-07-31T05:43:26;100745.0;;;18.05;100.0
68376;BME280;55318;52.068;5.188;2023-07-31T05:45:04;100746.0;;;18.06;100.0
68376;BME280;55318;52.068;5.188;2023-07-31T05:46:41;100747.0;;;18.13;100.0
68376;BME280;55318;52.068;5.188;2023-07-31T05:49:55;100746.0;;;18.23;100.0
68376;BME280;55318;52.068;5.188;2023-07-31T05:51:32;100737.0;;;18.02;100.0
68376;BME280;55318;52.068;5.188;2023-07-31T05:53:08;100735.0;;;18.06;100.0
68376;BME280;55318;52.068;5.188;2023-07-31T05:54:45;100739.0;;;17.93;100.0
68376;BME280;55318;52.068;5.188;2023-07-31T05:57:59;100736.0;;;18.03;100.0
68376;BME280;55318;52.068;5.188;2023-07-31T05:59:36;100732.0;;;18.04;100.0
68376;BME280;55318;52.068;5.188;2023-07-31T06:01:13;100735.0;;;18.07;100.0
68376;BME280;55318;52.068;5.188;2023-07-31T06:04:26;100731.0;;;18.07;100.0
68376;BME280;55318;52.068;5.188;2023-07-31T06:06:02;100733.0;;;18.09;100.0
68376;BME280;55318;52.068;5.188;2023-07-31T06:07:40;100733.0;;;18.0;100.0
68376;BME280;55318;52.068;5.188;2023-07-31T06:10:53;100731.0;;;18.06;100.0
68376;BME280;55318;52.068;5.188;2023-07-31T06:12:29;100725.0;;;18.02;100.0
68376;BME280;55318;52.068;5.188;2023-07-31T06:14:06;100723.0;;;18.04;100.0
68376;BME280;55318;52.068;5.188;2023-07-31T06:15:42;100720.0;;;18.0;100.0
68376;BME280;55318;52.068;5.188;2023-07-31T06:18:57;100717.0;;;18.0;100.0
68376;BME280;55318;52.068;5.188;2023-07-31T06:20:34;100724.0;;;18.09;100.0
68376;BME280;55318;52.068;5.188;2023-07-31T06:22:11;100718.0;;;18.14;100.0
68376;BME280;55318;52.068;5.188;2023-07-31T06:25:24;100713.0;;;18.07;100.0
68376;BME280;55318;52.068;5.188;2023-07-31T06:27:01;100715.0;;;18.2;100.0
68376;BME280;55318;52.068;5.188;2023-07-31T06:28:37;100711.0;;;18.13;100.0
68376;BME280;55318;52.068;5.188;2023-07-31T06:30:15;100714.0;;;18.22;100.0
68376;BME280;55318;52.068;5.188;2023-07-31T06:33:29;100719.0;;;18.18;100.0
68376;BME280;55318;52.068;5.188;2023-07-31T06:35:07;100710.0;;;18.18;100.0
68376;BME280;55318;52.068;5.188;2023-07-31T06:36:43;100706.0;;;18.27;100.0
68376;BME280;55318;52.068;5.188;2023-07-31T06:40:01;100697.0;;;18.31;100.0
68376;BME280;55318;52.068;5.188;2023-07-31T06:41:38;100699.0;;;18.25;100.0
68376;BME280;55318;52.068;5.188;2023-07-31T06:43:15;100691.0;;;18.3;100.0
68376;BME280;55318;52.068;5.188;2023-07-31T06:44:52;100685.0;;;18.43;100.0
68376;BME280;55318;52.068;5.188;2023-07-31T06:48:05;100687.0;;;18.36;100.0
68376;BME280;55318;52.068;5.188;2023-07-31T06:49:43;100680.0;;;18.45;100.0
68376;BME280;55318;52.068;5.188;2023-07-31T06:51:19;100678.0;;;18.46;100.0
68376;BME280;55318;52.068;5.188;2023-07-31T06:54:32;100671.0;;;18.5;100.0
68376;BME280;55318;52.068;5.188;2023-07-31T06:56:08;100673.0;;;18.59;100.0
68376;BME280;55318;52.068;5.188;2023-07-31T06:57:46;100676.0;;;18.61;100.0
68376;BME280;55318;52.068;5.188;2023-07-31T07:01:00;100675.0;;;18.75;100.0
68376;BME280;55318;52.068;5.188;2023-07-31T07:02:37;100670.0;;;18.68;100.0
68376;BME280;55318;52.068;5.188;2023-07-31T07:04:14;100674.0;;;18.63;100.0
68376;BME280;55318;52.068;5.188;2023-07-31T07:05:51;100671.0;;;18.68;100.0
68376;BME280;55318;52.068;5.188;2023-07-31T07:09:05;100670.0;;;18.68;100.0
68376;BME280;55318;52.068;5.188;2023-07-31T07:10:42;100670.0;;;18.7;100.0
68376;BME280;55318;52.068;5.188;2023-07-31T07:12:18;100667.0;;;18.71;100.0
68376;BME280;55318;52.068;5.188;2023-07-31T07:15:33;100667.0;;;18.71;100.0
68376;BME280;55318;52.068;5.188;2023-07-31T07:17:09;100668.0;;;18.64;100.0
68376;BME280;55318;52.068;5.188;2023-07-31T07:18:46;100667.0;;;18.63;100.0
68376;BME280;55318;52.068;5.188;2023-07-31T07:22:01;100668.0;;;18.63;100.0
68376;BME280;55318;52.068;5.188;2023-07-31T07:23:38;100665.0;;;18.77;100.0
68376;BME280;55318;52.068;5.188;2023-07-31T07:25:14;100662.0;;;18.8;100.0
68376;BME280;55318;52.068;5.188;2023-07-31T07:26:51;100671.0;;;18.73;100.0
68376;BME280;55318;52.068;5.188;2023-07-31T07:30:06;100661.0;;;18.77;100.0
68376;BME280;55318;52.068;5.188;2023-07-31T07:31:43;100661.0;;;18.86;100.0
68376;BME280;55318;52.068;5.188;2023-07-31T07:33:20;100669.0;;;18.84;100.0
68376;BME280;55318;52.068;5.188;2023-07-31T07:36:33;100671.0;;;18.88;100.0
68376;BME280;55318;52.068;5.188;2023-07-31T07:38:13;100669.0;;;18.81;100.0
68376;BME280;55318;52.068;5.188;2023-07-31T07:39:49;100666.0;;;18.89;100.0
68376;BME280;55318;52.068;5.188;2023-07-31T07:41:25;100663.0;;;18.95;100.0
68376;BME280;55318;52.068;5.188;2023-07-31T07:44:39;100665.0;;;19.04;100.0
68376;BME280;55318;52.068;5.188;2023-07-31T07:46:16;100662.0;;;19.2;100.0
68376;BME280;55318;52.068;5.188;2023-07-31T07:47:52;100665.0;;;19.16;100.0
68376;BME280;55318;52.068;5.188;2023-07-31T07:51:08;100663.0;;;19.25;100.0
68376;BME280;55318;52.068;5.188;2023-07-31T07:52:45;100656.0;;;19.09;100.0
68376;BME280;55318;52.068;5.188;2023-07-31T07:54:22;100661.0;;;19.0;100.0
68376;BME280;55318;52.068;5.188;2023-07-31T07:57:36;100663.0;;;19.11;100.0
68376;BME280;55318;52.068;5.188;2023-07-31T07:59:12;100659.0;;;19.11;100.0
68376;BME280;55318;52.068;5.188;2023-07-31T08:00:50;100653.0;;;19.18;100.0
68376;BME280;55318;52.068;5.188;2023-07-31T08:02:26;100656.0;;;19.22;100.0
68376;BME280;55318;52.068;5.188;2023-07-31T08:05:40;100663.0;;;19.11;100.0
68376;BME280;55318;52.068;5.188;2023-07-31T08:07:16;100650.0;;;19.02;100.0
68376;BME280;55318;52.068;5.188;2023-07-31T08:08:54;100648.0;;;19.09;100.0
68376;BME280;55318;52.068;5.188;2023-07-31T08:12:08;100640.0;;;19.11;100.0
68376;BME280;55318;52.068;5.188;2023-07-31T08:13:45;100643.0;;;19.28;100.0
68376;BME280;55318;52.068;5.188;2023-07-31T08:15:22;100639.0;;;19.25;100.0
68376;BME280;55318;52.068;5.188;2023-07-31T08:17:00;100638.0;;;19.2;100.0
68376;BME280;55318;52.068;5.188;2023-07-31T08:20:14;100635.0;;;19.2;100.0
68376;BME280;55318;52.068;5.188;2023-07-31T08:21:52;100632.0;;;19.37;100.0
68376;BME280;55318;52.068;5.188;2023-07-31T08:23:29;100633.0;;;19.37;100.0
68376;BME280;55318;52.068;5.188;2023-07-31T08:26:43;100636.0;;;19.41;100.0
68376;BME280;55318;52.068;5.188;2023-07-31T08:28:20;100635.0;;;19.22;100.0
68376;BME280;55318;52.068;5.188;2023-07-31T08:29:57;100638.0;;;19.45;100.0
68376;BME280;55318;52.068;5.188;2023-07-31T08:31:35;100630.0;;;19.48;100.0
68376;BME280;55318;52.068;5.188;2023-07-31T08:34:48;100628.0;;;19.53;100.0
68376;BME280;55318;52.068;5.188;2023-07-31T08:36:25;100643.0;;;19.55;100.0
68376;BME280;55318;52.068;5.188;2023-07-31T08:38:02;100631.0;;;19.43;100.0
68376;BME280;55318;52.068;5.188;2023-07-31T08:41:17;100622.0;;;19.47;100.0
68376;BME280;55318;52.068;5.188;2023-07-31T08:42:55;100625.0;;;19.59;100.0
68376;BME280;55318;52.068;5.188;2023-07-31T08:44:32;100631.0;;;19.7;100.0
68376;BME280;55318;52.068;5.188;2023-07-31T08:46:10;100631.0;;;19.7;100.0
68376;BME280;55318;52.068;5.188;2023-07-31T08:49:27;100624.0;;;19.7;100.0
68376;BME280;55318;52.068;5.188;2023-07-31T08:51:06;100625.0;;;19.61;100.0
68376;BME280;55318;52.068;5.188;2023-07-31T08:52:43;100625.0;;;19.64;100.0
68376;BME280;55318;52.068;5.188;2023-07-31T08:56:01;100623.0;;;19.52;100.0
68376;BME280;55318;52.068;5.188;2023-07-31T08:57:39;100632.0;;;19.56;100.0
68376;BME280;55318;52.068;5.188;2023-07-31T08:59:19;100630.0;;;19.64;100.0
68376;BME280;55318;52.068;5.188;2023-07-31T09:01:00;100626.0;;;19.72;100.0
68376;BME280;55318;52.068;5.188;2023-07-31T09:04:28;100623.0;;;19.77;100.0
68376;BME280;55318;52.068;5.188;2023-07-31T09:06:06;100626.0;;;19.79;100.0
68376;BME280;55318;52.068;5.188;2023-07-31T09:07:44;100637.0;;;19.88;100.0
68376;BME280;55318;52.068;5.188;2023-07-31T09:09:23;100627.0;;;19.82;100.0
68376;BME280;55318;52.068;5.188;2023-07-31T09:12:38;100638.0;;;19.87;100.0
68376;BME280;55318;52.068;5.188;2023-07-31T09:14:16;100635.0;;;19.91;100.0
68376;BME280;55318;52.068;5.188;2023-07-31T09:15:54;100634.0;;;19.89;100.0
68376;BME280;55318;52.068;5.188;2023-07-31T09:19:10;100628.0;;;19.87;100.0
68376;BME280;55318;52.068;5.188;2023-07-31T09:21:00;100620.0;;;20.0;100.0
68376;BME280;55318;52.068;5.188;2023-07-31T09:22:36;100630.0;;;19.95;100.0
68376;BME280;55318;52.068;5.188;2023-07-31T09:24:24;100614.0;;;20.02;100.0
68376;BME280;55318;52.068;5.188;2023-07-31T09:26:01;100619.0;;;19.97;100.0
68376;BME280;55318;52.068;5.188;2023-07-31T09:29:23;100614.0;;;20.05;100.0
68376;BME280;55318;52.068;5.188;2023-07-31T09:31:01;100615.0;;;20.07;100.0
68376;BME280;55318;52.068;5.188;2023-07-31T09:32:38;100616.0;;;20.13;100.0
68376;BME280;55318;52.068;5.188;2023-07-31T09:35:52;100608.0;;;20.03;100.0
68376;BME280;55318;52.068;5.188;2023-07-31T09:37:29;100606.0;;;20.2;100.0
68376;BME280;55318;52.068;5.188;2023-07-31T09:39:08;100608.0;;;20.09;100.0
68376;BME280;55318;52.068;5.188;2023-07-31T09:40:47;100611.0;;;20.14;100.0
68376;BME280;55318;52.068;5.188;2023-07-31T09:44:03;100611.0;;;20.13;100.0
68376;BME280;55318;52.068;5.188;2023-07-31T09:45:41;100611.0;;;20.14;100.0
68376;BME280;55318;52.068;5.188;2023-07-31T09:47:22;100615.0;;;20.22;100.0
68376;BME280;55318;52.068;5.188;2023-07-31T09:49:10;100613.0;;;20.2;100.0
68376;BME280;55318;52.068;5.188;2023-07-31T09:52:26;100617.0;;;20.27;100.0
68376;BME280;55318;52.068;5.188;2023-07-31T09:54:02;100615.0;;;20.18;100.0
68376;BME280;55318;52.068;5.188;2023-07-31T09:55:40;100618.0;;;20.22;100.0
68376;BME280;55318;52.068;5.188;2023-07-31T09:57:21;100615.0;;;20.05;100.0
68376;BME280;55318;52.068;5.188;2023-07-31T10:00:36;100610.0;;;20.02;100.0
68376;BME280;55318;52.068;5.188;2023-07-31T10:02:18;100605.0;;;20.09;100.0
68376;BME280;55318;52.068;5.188;2023-07-31T10:03:57;100611.0;;;19.91;100.0
68376;BME280;55318;52.068;5.188;2023-07-31T10:07:17;100606.0;;;20.11;100.0
68376;BME280;55318;52.068;5.188;2023-07-31T10:08:54;100609.0;;;20.2;100.0
68376;BME280;55318;52.068;5.188;2023-07-31T10:10:32;100607.0;;;20.18;100.0
68376;BME280;55318;52.068;5.188;2023-07-31T10:12:14;100614.0;;;20.2;100.0
68376;BME280;55318;52.068;5.188;2023-07-31T10:15:32;100614.0;;;20.03;100.0
68376;BME280;55318;52.068;5.188;2023-07-31T10:17:10;100603.0;;;20.05;100.0
68376;BME280;55318;52.068;5.188;2023-07-31T10:18:49;100614.0;;;20.05;100.0
68376;BME280;55318;52.068;5.188;2023-07-31T10:20:26;100614.0;;;20.09;100.0
68376;BME280;55318;52.068;5.188;2023-07-31T10:23:44;100613.0;;;20.06;100.0
68376;BME280;55318;52.068;5.188;2023-07-31T10:25:21;100617.0;;;20.04;100.0
68376;BME280;55318;52.068;5.188;2023-07-31T10:27:00;100610.0;;;20.02;100.0
68376;BME280;55318;52.068;5.188;2023-07-31T10:30:17;100610.0;;;20.11;100.0
68376;BME280;55318;52.068;5.188;2023-07-31T10:31:56;100603.0;;;20.09;100.0
68376;BME280;55318;52.068;5.188;2023-07-31T10:33:34;100607.0;;;20.11;100.0
68376;BME280;55318;52.068;5.188;2023-07-31T10:35:11;100610.0;;;20.21;100.0
68376;BME280;55318;52.068;5.188;2023-07-31T10:38:25;100609.0;;;20.27;100.0
68376;BME280;55318;52.068;5.188;2023-07-31T10:40:03;100603.0;;;20.32;100.0
68376;BME280;55318;52.068;5.188;2023-07-31T10:41:40;100605.0;;;20.34;100.0
68376;BME280;55318;52.068;5.188;2023-07-31T10:45:04;100614.0;;;20.27;100.0
68376;BME280;55318;52.068;5.188;2023-07-31T10:46:42;100608.0;;;20.34;100.0
68376;BME280;55318;52.068;5.188;2023-07-31T10:48:21;100610.0;;;20.32;100.0
68376;BME280;55318;52.068;5.188;2023-07-31T10:50:17;100609.0;;;20.31;100.0
68376;BME280;55318;52.068;5.188;2023-07-31T10:52:11;100607.0;;;20.36;100.0
68376;BME280;55318;52.068;5.188;2023-07-31T10:53:48;100614.0;;;20.39;100.0
68376;BME280;55318;52.068;5.188;2023-07-31T10:57:18;100614.0;;;20.41;100.0
68376;BME280;55318;52.068;5.188;2023-07-31T10:59:00;100611.0;;;20.37;100.0
68376;BME280;55318;52.068;5.188;2023-07-31T11:00:39;100607.0;;;20.48;100.0
68376;BME280;55318;52.068;5.188;2023-07-31T11:02:24;100607.0;;;20.45;100.0
68376;BME280;55318;52.068;5.188;2023-07-31T11:05:50;100607.0;;;20.53;100.0